sensor_id;sensor_type;location;lat;lon;timestamp;temperature;humidity
51922;DHT22;37948;53.260;6.394;2023-03-03T00:00:59;1.60;99.90
51922;DHT22;37948;53.260;6.394;2023-03-03T00:03:25;1.50;99.90
51922;DHT22;37948;53.260;6.394;2023-03-03T00:05:52;1.50;99.90
51922;DHT22;37948;53.260;6.394;2023-03-03T00:08:19;1.50;99.90
51922;DHT22;37948;53.260;6.394;2023-03-03T00:10:45;1.50;99.90
51922;DHT22;37948;53.260;6.394;2023-03-03T00:13:16;1.40;99.90
51922;DHT22;37948;53.260;6.394;2023-03-03T00:15:43;1.40;99.90
51922;DHT22;37948;53.260;6.394;2023-03-03T00:20:52;1.30;99.90
51922;DHT22;37948;53.260;6.394;2023-03-03T00:23:28;1.30;99.90
51922;DHT22;37948;53.260;6.394;2023-03-03T00:25:56;1.20;99.90
51922;DHT22;37948;53.260;6.394;2023-03-03T00:28:31;1.10;99.90
51922;DHT22;37948;53.260;6.394;2023-03-03T00:30:59;1.00;99.90
51922;DHT22;37948;53.260;6.394;2023-03-03T00:33:33;0.90;99.90
51922;DHT22;37948;53.260;6.394;2023-03-03T00:38:53;0.80;99.90
51922;DHT22;37948;53.260;6.394;2023-03-03T00:41:23;0.70;99.90
51922;DHT22;37948;53.260;6.394;2023-03-03T00:43:50;0.70;99.90
51922;DHT22;37948;53.260;6.394;2023-03-03T00:46:21;0.60;99.90
51922;DHT22;37948;53.260;6.394;2023-03-03T00:48:47;0.50;99.90
51922;DHT22;37948;53.260;6.394;2023-03-03T00:53:49;0.40;99.90
51922;DHT22;37948;53.260;6.394;2023-03-03T00:56:14;0.40;99.90
51922;DHT22;37948;53.260;6.394;2023-03-03T00:58:40;0.30;99.90
51922;DHT22;37948;53.260;6.394;2023-03-03T01:01:06;0.30;99.90
51922;DHT22;37948;53.260;6.394;2023-03-03T01:03:32;0.30;99.90
51922;DHT22;37948;53.260;6.394;2023-03-03T01:05:57;0.30;99.90
51922;DHT22;37948;53.260;6.394;2023-03-03T01:08:23;0.20;99.90
51922;DHT22;37948;53.260;6.394;2023-03-03T01:10:52;0.10;99.90
51922;DHT22;37948;53.260;6.394;2023-03-03T01:13:20;0.00;99.90
51922;DHT22;37948;53.260;6.394;2023-03-03T01:15:46;0.00;99.90
51922;DHT22;37948;53.260;6.394;2023-03-03T01:18:12;0.00;99.90
51922;DHT22;37948;53.260;6.394;2023-03-03T01:20:39;-0.10;99.90
51922;DHT22;37948;53.260;6.394;2023-03-03T01:23:04;-0.20;99.90
51922;DHT22;37948;53.260;6.394;2023-03-03T01:25:30;-0.20;99.90
51922;DHT22;37948;53.260;6.394;2023-03-03T01:27:56;-0.30;99.90
51922;DHT22;37948;53.260;6.394;2023-03-03T01:30:22;-0.30;99.90
51922;DHT22;37948;53.260;6.394;2023-03-03T01:32:48;-0.30;99.90
51922;DHT22;37948;53.260;6.394;2023-03-03T01:35:13;-0.30;99.90
51922;DHT22;37948;53.260;6.394;2023-03-03T01:37:39;-0.40;99.90
51922;DHT22;37948;53.260;6.394;2023-03-03T01:40:10;-0.40;99.90
51922;DHT22;37948;53.260;6.394;2023-03-03T01:42:36;-0.40;99.90
51922;DHT22;37948;53.260;6.394;2023-03-03T01:45:27;-0.40;99.90
51922;DHT22;37948;53.260;6.394;2023-03-03T01:50:38;-0.50;99.90
51922;DHT22;37948;53.260;6.394;2023-03-03T01:53:12;-0.50;99.90
51922;DHT22;37948;53.260;6.394;2023-03-03T01:55:41;-0.60;99.90
51922;DHT22;37948;53.260;6.394;2023-03-03T01:58:17;-0.50;99.90
51922;DHT22;37948;53.260;6.394;2023-03-03T02:00:48;-0.60;99.90
51922;DHT22;37948;53.260;6.394;2023-03-03T02:03:15;-0.60;99.90
51922;DHT22;37948;53.260;6.394;2023-03-03T02:05:42;-0.60;99.90
51922;DHT22;37948;53.260;6.394;2023-03-03T02:08:10;-0.70;99.90
51922;DHT22;37948;53.260;6.394;2023-03-03T02:10:37;-0.70;99.90
51922;DHT22;37948;53.260;6.394;2023-03-03T02:13:03;-0.70;99.90
51922;DHT22;37948;53.260;6.394;2023-03-03T02:15:34;-0.70;99.90
51922;DHT22;37948;53.260;6.394;2023-03-03T02:18:11;-0.70;99.90
51922;DHT22;37948;53.260;6.394;2023-03-03T02:23:36;-0.70;99.90
51922;DHT22;37948;53.260;6.394;2023-03-03T02:28:33;-0.80;99.90
51922;DHT22;37948;53.260;6.394;2023-03-03T02:30:59;-0.80;99.90
51922;DHT22;37948;53.260;6.394;2023-03-03T02:33:26;-0.80;99.90
51922;DHT22;37948;53.260;6.394;2023-03-03T02:35:52;-0.80;99.90
51922;DHT22;37948;53.260;6.394;2023-03-03T02:38:26;-0.80;99.90
51922;DHT22;37948;53.260;6.394;2023-03-03T02:41:12;-0.80;99.90
51922;DHT22;37948;53.260;6.394;2023-03-03T02:44:04;-0.90;99.90
51922;DHT22;37948;53.260;6.394;2023-03-03T02:46:35;-0.90;99.90
51922;DHT22;37948;53.260;6.394;2023-03-03T02:49:03;-0.90;99.90
51922;DHT22;37948;53.260;6.394;2023-03-03T02:51:29;-0.80;99.90
51922;DHT22;37948;53.260;6.394;2023-03-03T02:53:54;-0.90;99.90
51922;DHT22;37948;53.260;6.394;2023-03-03T02:56:20;-0.80;99.90
51922;DHT22;37948;53.260;6.394;2023-03-03T02:58:46;-0.80;99.90
51922;DHT22;37948;53.260;6.394;2023-03-03T03:01:12;-0.80;99.90
51922;DHT22;37948;53.260;6.394;2023-03-03T03:03:37;-0.80;99.90
51922;DHT22;37948;53.260;6.394;2023-03-03T03:06:03;-0.80;99.90
51922;DHT22;37948;53.260;6.394;2023-03-03T03:08:29;-0.80;99.90
51922;DHT22;37948;53.260;6.394;2023-03-03T03:10:55;-0.70;99.90
51922;DHT22;37948;53.260;6.394;2023-03-03T03:13:22;-0.80;99.90
51922;DHT22;37948;53.260;6.394;2023-03-03T03:15:49;-0.70;99.90
51922;DHT22;37948;53.260;6.394;2023-03-03T03:18:15;-0.80;99.90
51922;DHT22;37948;53.260;6.394;2023-03-03T03:20:41;-0.80;99.90
51922;DHT22;37948;53.260;6.394;2023-03-03T03:23:08;-0.80;99.90
51922;DHT22;37948;53.260;6.394;2023-03-03T03:25:34;-0.90;99.90
51922;DHT22;37948;53.260;6.394;2023-03-03T03:28:00;-0.90;99.90
51922;DHT22;37948;53.260;6.394;2023-03-03T03:30:26;-0.90;99.90
51922;DHT22;37948;53.260;6.394;2023-03-03T03:32:52;-1.00;99.90
51922;DHT22;37948;53.260;6.394;2023-03-03T03:35:17;-0.90;99.90
51922;DHT22;37948;53.260;6.394;2023-03-03T03:37:43;-0.90;99.90
51922;DHT22;37948;53.260;6.394;2023-03-03T03:40:09;-0.90;99.90
51922;DHT22;37948;53.260;6.394;2023-03-03T03:42:35;-1.00;99.90
51922;DHT22;37948;53.260;6.394;2023-03-03T03:45:04;-0.90;99.90
51922;DHT22;37948;53.260;6.394;2023-03-03T03:47:30;-1.00;99.90
51922;DHT22;37948;53.260;6.394;2023-03-03T03:49:56;-0.90;99.90
51922;DHT22;37948;53.260;6.394;2023-03-03T03:52:21;-1.00;99.90
51922;DHT22;37948;53.260;6.394;2023-03-03T03:54:47;-1.00;99.90
51922;DHT22;37948;53.260;6.394;2023-03-03T03:57:13;-1.00;99.90
51922;DHT22;37948;53.260;6.394;2023-03-03T03:59:38;-1.00;99.90
51922;DHT22;37948;53.260;6.394;2023-03-03T04:02:04;-1.00;99.90
51922;DHT22;37948;53.260;6.394;2023-03-03T04:04:30;-1.00;99.90
51922;DHT22;37948;53.260;6.394;2023-03-03T04:06:55;-1.00;99.90
51922;DHT22;37948;53.260;6.394;2023-03-03T04:09:21;-1.00;99.90
51922;DHT22;37948;53.260;6.394;2023-03-03T04:11:47;-1.00;99.90
51922;DHT22;37948;53.260;6.394;2023-03-03T04:14:12;-1.00;99.90
51922;DHT22;37948;53.260;6.394;2023-03-03T04:16:38;-1.00;99.90
51922;DHT22;37948;53.260;6.394;2023-03-03T04:19:06;-1.00;99.90
51922;DHT22;37948;53.260;6.394;2023-03-03T04:21:32;-1.00;99.90
51922;DHT22;37948;53.260;6.394;2023-03-03T04:23:58;-1.10;99.90
51922;DHT22;37948;53.260;6.394;2023-03-03T04:26:23;-1.00;99.90
51922;DHT22;37948;53.260;6.394;2023-03-03T04:28:51;-1.00;99.90
51922;DHT22;37948;53.260;6.394;2023-03-03T04:31:16;-1.00;99.90
51922;DHT22;37948;53.260;6.394;2023-03-03T04:33:42;-1.00;99.90
51922;DHT22;37948;53.260;6.394;2023-03-03T04:36:08;-1.00;99.90
51922;DHT22;37948;53.260;6.394;2023-03-03T04:38:33;-1.00;99.90
51922;DHT22;37948;53.260;6.394;2023-03-03T04:40:59;-1.00;99.90
51922;DHT22;37948;53.260;6.394;2023-03-03T04:43:24;-1.00;99.90
51922;DHT22;37948;53.260;6.394;2023-03-03T04:45:50;-1.00;99.90
51922;DHT22;37948;53.260;6.394;2023-03-03T04:48:16;-1.00;99.90
51922;DHT22;37948;53.260;6.394;2023-03-03T04:50:41;-0.90;99.90
51922;DHT22;37948;53.260;6.394;2023-03-03T04:53:08;-0.90;99.90
51922;DHT22;37948;53.260;6.394;2023-03-03T04:55:36;-0.80;99.90
51922;DHT22;37948;53.260;6.394;2023-03-03T04:58:02;-0.90;99.90
51922;DHT22;37948;53.260;6.394;2023-03-03T05:00:28;-0.80;99.90
51922;DHT22;37948;53.260;6.394;2023-03-03T05:02:54;-0.90;99.90
51922;DHT22;37948;53.260;6.394;2023-03-03T05:05:19;-0.90;99.90
51922;DHT22;37948;53.260;6.394;2023-03-03T05:07:45;-0.90;99.90
51922;DHT22;37948;53.260;6.394;2023-03-03T05:10:11;-0.90;99.90
51922;DHT22;37948;53.260;6.394;2023-03-03T05:12:37;-0.90;99.90
51922;DHT22;37948;53.260;6.394;2023-03-03T05:15:04;-0.90;99.90
51922;DHT22;37948;53.260;6.394;2023-03-03T05:17:30;-0.90;99.90
51922;DHT22;37948;53.260;6.394;2023-03-03T05:19:55;-1.00;99.90
51922;DHT22;37948;53.260;6.394;2023-03-03T05:22:22;-1.00;99.90
51922;DHT22;37948;53.260;6.394;2023-03-03T05:24:47;-0.90;99.90
51922;DHT22;37948;53.260;6.394;2023-03-03T05:27:14;-0.90;99.90
51922;DHT22;37948;53.260;6.394;2023-03-03T05:29:40;-1.00;99.90
51922;DHT22;37948;53.260;6.394;2023-03-03T05:32:06;-1.00;99.90
51922;DHT22;37948;53.260;6.394;2023-03-03T05:34:31;-1.00;99.90
51922;DHT22;37948;53.260;6.394;2023-03-03T05:36:57;-1.00;99.90
51922;DHT22;37948;53.260;6.394;2023-03-03T05:39:23;-1.10;99.90
51922;DHT22;37948;53.260;6.394;2023-03-03T05:41:48;-1.00;99.90
51922;DHT22;37948;53.260;6.394;2023-03-03T05:44:14;-1.00;99.90
51922;DHT22;37948;53.260;6.394;2023-03-03T05:46:40;-1.00;99.90
51922;DHT22;37948;53.260;6.394;2023-03-03T05:49:07;-1.00;99.90
51922;DHT22;37948;53.260;6.394;2023-03-03T05:51:32;-1.10;99.90
51922;DHT22;37948;53.260;6.394;2023-03-03T05:53:58;-1.10;99.90
51922;DHT22;37948;53.260;6.394;2023-03-03T05:56:24;-1.10;99.90
51922;DHT22;37948;53.260;6.394;2023-03-03T05:58:49;-1.10;99.90
51922;DHT22;37948;53.260;6.394;2023-03-03T06:01:15;-1.10;99.90
51922;DHT22;37948;53.260;6.394;2023-03-03T06:03:41;-1.10;99.90
51922;DHT22;37948;53.260;6.394;2023-03-03T06:06:06;-1.10;99.90
51922;DHT22;37948;53.260;6.394;2023-03-03T06:08:33;-1.00;99.90
51922;DHT22;37948;53.260;6.394;2023-03-03T06:10:59;-1.10;99.90
51922;DHT22;37948;53.260;6.394;2023-03-03T06:13:25;-1.10;99.90
51922;DHT22;37948;53.260;6.394;2023-03-03T06:15:50;-1.10;99.90
51922;DHT22;37948;53.260;6.394;2023-03-03T06:18:16;-1.10;99.90
51922;DHT22;37948;53.260;6.394;2023-03-03T06:20:41;-1.10;99.90
51922;DHT22;37948;53.260;6.394;2023-03-03T06:23:07;-1.10;99.90
51922;DHT22;37948;53.260;6.394;2023-03-03T06:25:33;-1.10;99.90
51922;DHT22;37948;53.260;6.394;2023-03-03T06:28:00;-1.10;99.90
51922;DHT22;37948;53.260;6.394;2023-03-03T06:30:26;-1.00;99.90
51922;DHT22;37948;53.260;6.394;2023-03-03T06:32:53;-1.00;99.90
51922;DHT22;37948;53.260;6.394;2023-03-03T06:35:18;-0.90;99.90
51922;DHT22;37948;53.260;6.394;2023-03-03T06:37:44;-0.90;99.90
51922;DHT22;37948;53.260;6.394;2023-03-03T06:40:10;-0.90;99.90
51922;DHT22;37948;53.260;6.394;2023-03-03T06:42:36;-0.90;99.90
51922;DHT22;37948;53.260;6.394;2023-03-03T06:45:02;-0.80;99.90
51922;DHT22;37948;53.260;6.394;2023-03-03T06:47:28;-0.80;99.90
51922;DHT22;37948;53.260;6.394;2023-03-03T06:49:54;-0.80;99.90
51922;DHT22;37948;53.260;6.394;2023-03-03T06:52:22;-0.80;99.90
51922;DHT22;37948;53.260;6.394;2023-03-03T06:54:49;-0.70;99.90
51922;DHT22;37948;53.260;6.394;2023-03-03T06:57:25;-0.70;99.90
51922;DHT22;37948;53.260;6.394;2023-03-03T06:59:53;-0.70;99.90
51922;DHT22;37948;53.260;6.394;2023-03-03T07:02:20;-0.70;99.90
51922;DHT22;37948;53.260;6.394;2023-03-03T07:04:47;-0.60;99.90
51922;DHT22;37948;53.260;6.394;2023-03-03T07:07:19;-0.60;99.90
51922;DHT22;37948;53.260;6.394;2023-03-03T07:09:47;-0.60;99.90
51922;DHT22;37948;53.260;6.394;2023-03-03T07:12:26;-0.60;99.90
51922;DHT22;37948;53.260;6.394;2023-03-03T07:15:14;-0.60;99.90
51922;DHT22;37948;53.260;6.394;2023-03-03T07:17:43;-0.60;99.90
51922;DHT22;37948;53.260;6.394;2023-03-03T07:20:37;-0.60;99.90
51922;DHT22;37948;53.260;6.394;2023-03-03T07:23:20;-0.50;99.90
51922;DHT22;37948;53.260;6.394;2023-03-03T07:25:46;-0.50;99.90
51922;DHT22;37948;53.260;6.394;2023-03-03T07:28:20;-0.50;99.90
51922;DHT22;37948;53.260;6.394;2023-03-03T07:30:47;-0.40;99.90
51922;DHT22;37948;53.260;6.394;2023-03-03T07:33:22;-0.40;99.90
51922;DHT22;37948;53.260;6.394;2023-03-03T07:35:50;-0.40;99.90
51922;DHT22;37948;53.260;6.394;2023-03-03T07:38:39;-0.30;99.90
51922;DHT22;37948;53.260;6.394;2023-03-03T07:41:14;-0.30;99.90
51922;DHT22;37948;53.260;6.394;2023-03-03T07:46:24;-0.20;99.90
51922;DHT22;37948;53.260;6.394;2023-03-03T07:48:52;-0.10;99.90
51922;DHT22;37948;53.260;6.394;2023-03-03T07:51:27;-0.10;99.90
51922;DHT22;37948;53.260;6.394;2023-03-03T07:54:10;-0.10;99.90
51922;DHT22;37948;53.260;6.394;2023-03-03T07:56:39;0.00;99.90
51922;DHT22;37948;53.260;6.394;2023-03-03T07:59:22;0.00;99.90
51922;DHT22;37948;53.260;6.394;2023-03-03T08:01:54;0.10;99.90
51922;DHT22;37948;53.260;6.394;2023-03-03T08:04:39;0.10;99.90
51922;DHT22;37948;53.260;6.394;2023-03-03T08:07:15;0.20;99.90
51922;DHT22;37948;53.260;6.394;2023-03-03T08:09:47;0.20;99.90
51922;DHT22;37948;53.260;6.394;2023-03-03T08:14:50;0.30;99.90
51922;DHT22;37948;53.260;6.394;2023-03-03T08:17:23;0.30;99.90
51922;DHT22;37948;53.260;6.394;2023-03-03T08:19:52;0.30;99.90
51922;DHT22;37948;53.260;6.394;2023-03-03T08:22:34;0.30;99.90
51922;DHT22;37948;53.260;6.394;2023-03-03T08:25:02;0.40;99.90
51922;DHT22;37948;53.260;6.394;2023-03-03T08:27:28;0.40;99.90
51922;DHT22;37948;53.260;6.394;2023-03-03T08:29:54;0.50;99.90
51922;DHT22;37948;53.260;6.394;2023-03-03T08:32:19;0.50;99.90
51922;DHT22;37948;53.260;6.394;2023-03-03T08:34:45;0.60;99.90
51922;DHT22;37948;53.260;6.394;2023-03-03T08:37:11;0.60;99.90
51922;DHT22;37948;53.260;6.394;2023-03-03T08:39:36;0.70;99.90
51922;DHT22;37948;53.260;6.394;2023-03-03T08:42:02;0.70;99.90
51922;DHT22;37948;53.260;6.394;2023-03-03T08:44:28;0.80;99.90
51922;DHT22;37948;53.260;6.394;2023-03-03T08:46:53;0.80;99.90
51922;DHT22;37948;53.260;6.394;2023-03-03T08:49:20;0.90;99.90
51922;DHT22;37948;53.260;6.394;2023-03-03T08:51:46;1.00;99.90
51922;DHT22;37948;53.260;6.394;2023-03-03T08:54:12;1.10;99.90
51922;DHT22;37948;53.260;6.394;2023-03-03T08:56:37;1.10;99.90
51922;DHT22;37948;53.260;6.394;2023-03-03T08:59:03;1.30;99.90
51922;DHT22;37948;53.260;6.394;2023-03-03T09:01:30;1.40;99.90
51922;DHT22;37948;53.260;6.394;2023-03-03T09:03:56;1.50;99.90
51922;DHT22;37948;53.260;6.394;2023-03-03T09:06:22;1.60;99.90
51922;DHT22;37948;53.260;6.394;2023-03-03T09:08:47;1.70;99.90
51922;DHT22;37948;53.260;6.394;2023-03-03T09:11:14;1.80;99.90
51922;DHT22;37948;53.260;6.394;2023-03-03T09:13:43;1.90;99.90
51922;DHT22;37948;53.260;6.394;2023-03-03T09:16:13;2.10;99.90
51922;DHT22;37948;53.260;6.394;2023-03-03T09:18:41;2.10;99.90
51922;DHT22;37948;53.260;6.394;2023-03-03T09:21:25;2.30;99.90
51922;DHT22;37948;53.260;6.394;2023-03-03T09:23:55;2.40;99.90
51922;DHT22;37948;53.260;6.394;2023-03-03T09:29:17;2.60;99.90
51922;DHT22;37948;53.260;6.394;2023-03-03T09:31:53;2.60;99.90
51922;DHT22;37948;53.260;6.394;2023-03-03T09:34:41;2.70;99.90
51922;DHT22;37948;53.260;6.394;2023-03-03T09:37:26;2.80;99.90
51922;DHT22;37948;53.260;6.394;2023-03-03T09:39:56;2.90;99.90
51922;DHT22;37948;53.260;6.394;2023-03-03T09:50:32;3.20;99.90
51922;DHT22;37948;53.260;6.394;2023-03-03T09:55:50;3.50;99.90
51922;DHT22;37948;53.260;6.394;2023-03-03T09:58:21;3.60;99.90
51922;DHT22;37948;53.260;6.394;2023-03-03T10:01:22;3.70;99.90
51922;DHT22;37948;53.260;6.394;2023-03-03T10:09:41;4.10;99.90
51922;DHT22;37948;53.260;6.394;2023-03-03T10:18:12;4.40;99.90
51922;DHT22;37948;53.260;6.394;2023-03-03T10:21:01;4.50;99.90
51922;DHT22;37948;53.260;6.394;2023-03-03T10:26:50;4.60;99.90
51922;DHT22;37948;53.260;6.394;2023-03-03T10:29:45;4.60;99.90
51922;DHT22;37948;53.260;6.394;2023-03-03T10:38:08;4.90;99.90
51922;DHT22;37948;53.260;6.394;2023-03-03T10:41:10;4.90;99.90
51922;DHT22;37948;53.260;6.394;2023-03-03T10:43:59;4.90;99.90
51922;DHT22;37948;53.260;6.394;2023-03-03T10:46:39;5.00;99.90
51922;DHT22;37948;53.260;6.394;2023-03-03T10:57:37;5.10;99.90
51922;DHT22;37948;53.260;6.394;2023-03-03T11:00:21;5.20;99.90
51922;DHT22;37948;53.260;6.394;2023-03-03T11:03:20;5.20;99.90
51922;DHT22;37948;53.260;6.394;2023-03-03T11:06:25;5.20;99.90
51922;DHT22;37948;53.260;6.394;2023-03-03T11:09:02;5.20;99.90
51922;DHT22;37948;53.260;6.394;2023-03-03T11:11:52;5.30;99.90
51922;DHT22;37948;53.260;6.394;2023-03-03T11:14:42;5.50;99.90
51922;DHT22;37948;53.260;6.394;2023-03-03T11:22:45;5.80;99.90
51922;DHT22;37948;53.260;6.394;2023-03-03T11:33:25;5.80;99.90
51922;DHT22;37948;53.260;6.394;2023-03-03T11:36:11;5.80;99.90
51922;DHT22;37948;53.260;6.394;2023-03-03T11:39:01;5.90;99.90
51922;DHT22;37948;53.260;6.394;2023-03-03T11:41:38;6.00;99.90
51922;DHT22;37948;53.260;6.394;2023-03-03T11:44:21;6.00;99.90
51922;DHT22;37948;53.260;6.394;2023-03-03T11:46:57;6.10;99.90
51922;DHT22;37948;53.260;6.394;2023-03-03T11:54:41;6.10;99.90
51922;DHT22;37948;53.260;6.394;2023-03-03T12:00:02;6.30;99.90
51922;DHT22;37948;53.260;6.394;2023-03-03T12:11:30;6.50;99.90
51922;DHT22;37948;53.260;6.394;2023-03-03T12:14:17;6.60;99.90
51922;DHT22;37948;53.260;6.394;2023-03-03T12:16:57;6.50;99.90
51922;DHT22;37948;53.260;6.394;2023-03-03T12:19:27;6.50;99.90
51922;DHT22;37948;53.260;6.394;2023-03-03T12:24:52;6.50;99.90
51922;DHT22;37948;53.260;6.394;2023-03-03T12:48:41;6.60;99.90
51922;DHT22;37948;53.260;6.394;2023-03-03T12:57:16;6.70;99.90
51922;DHT22;37948;53.260;6.394;2023-03-03T12:59:53;6.70;99.90
51922;DHT22;37948;53.260;6.394;2023-03-03T13:02:46;6.70;99.90
51922;DHT22;37948;53.260;6.394;2023-03-03T13:16:33;6.70;99.90
51922;DHT22;37948;53.260;6.394;2023-03-03T13:19:07;6.70;99.90
51922;DHT22;37948;53.260;6.394;2023-03-03T13:24:25;6.60;99.90
51922;DHT22;37948;53.260;6.394;2023-03-03T13:29:32;6.70;99.90
51922;DHT22;37948;53.260;6.394;2023-03-03T13:32:14;6.70;99.90
51922;DHT22;37948;53.260;6.394;2023-03-03T13:34:43;6.60;99.90
51922;DHT22;37948;53.260;6.394;2023-03-03T13:37:23;6.60;99.90
51922;DHT22;37948;53.260;6.394;2023-03-03T13:39:58;6.50;99.90
51922;DHT22;37948;53.260;6.394;2023-03-03T13:42:43;6.50;99.90
51922;DHT22;37948;53.260;6.394;2023-03-03T13:45:19;6.50;99.90
51922;DHT22;37948;53.260;6.394;2023-03-03T13:50:28;6.40;99.90
51922;DHT22;37948;53.260;6.394;2023-03-03T13:53:10;6.40;99.90
51922;DHT22;37948;53.260;6.394;2023-03-03T13:55:51;6.40;99.90
51922;DHT22;37948;53.260;6.394;2023-03-03T13:58:32;6.30;99.90
51922;DHT22;37948;53.260;6.394;2023-03-03T14:04:38;6.30;99.90
51922;DHT22;37948;53.260;6.394;2023-03-03T14:07:13;6.20;99.90
51922;DHT22;37948;53.260;6.394;2023-03-03T14:15:17;6.30;99.90
51922;DHT22;37948;53.260;6.394;2023-03-03T14:17:56;6.30;99.90
51922;DHT22;37948;53.260;6.394;2023-03-03T14:20:29;6.30;99.90
51922;DHT22;37948;53.260;6.394;2023-03-03T14:23:01;6.30;99.90
51922;DHT22;37948;53.260;6.394;2023-03-03T14:25:49;6.30;99.90
51922;DHT22;37948;53.260;6.394;2023-03-03T14:28:16;6.30;99.90
51922;DHT22;37948;53.260;6.394;2023-03-03T14:30:43;6.20;99.90
51922;DHT22;37948;53.260;6.394;2023-03-03T14:40:37;6.20;99.90
51922;DHT22;37948;53.260;6.394;2023-03-03T14:43:32;6.20;99.90
51922;DHT22;37948;53.260;6.394;2023-03-03T14:46:35;6.20;99.90
51922;DHT22;37948;53.260;6.394;2023-03-03T14:49:32;6.20;99.90
51922;DHT22;37948;53.260;6.394;2023-03-03T14:52:10;6.20;99.90
51922;DHT22;37948;53.260;6.394;2023-03-03T14:54:38;6.20;99.90
51922;DHT22;37948;53.260;6.394;2023-03-03T14:57:17;6.20;99.90
51922;DHT22;37948;53.260;6.394;2023-03-03T15:00:14;6.10;99.90
51922;DHT22;37948;53.260;6.394;2023-03-03T15:05:35;6.20;99.90
51922;DHT22;37948;53.260;6.394;2023-03-03T15:13:30;6.20;99.90
51922;DHT22;37948;53.260;6.394;2023-03-03T15:16:01;6.20;99.90
51922;DHT22;37948;53.260;6.394;2023-03-03T15:18:29;6.20;99.90
51922;DHT22;37948;53.260;6.394;2023-03-03T15:26:29;6.20;99.90
51922;DHT22;37948;53.260;6.394;2023-03-03T15:29:21;6.20;99.90
51922;DHT22;37948;53.260;6.394;2023-03-03T15:34:50;6.20;99.90
51922;DHT22;37948;53.260;6.394;2023-03-03T15:45:28;6.10;99.90
51922;DHT22;37948;53.260;6.394;2023-03-03T16:04:04;6.10;99.90
51922;DHT22;37948;53.260;6.394;2023-03-03T16:06:39;6.00;99.90
51922;DHT22;37948;53.260;6.394;2023-03-03T16:12:20;6.00;99.90
51922;DHT22;37948;53.260;6.394;2023-03-03T16:15:12;5.90;99.90
51922;DHT22;37948;53.260;6.394;2023-03-03T16:18:02;6.00;99.90
51922;DHT22;37948;53.260;6.394;2023-03-03T16:26:47;6.00;99.90
51922;DHT22;37948;53.260;6.394;2023-03-03T16:34:20;5.80;99.90
51922;DHT22;37948;53.260;6.394;2023-03-03T16:42:02;5.90;99.90
51922;DHT22;37948;53.260;6.394;2023-03-03T16:47:43;5.80;99.90
51922;DHT22;37948;53.260;6.394;2023-03-03T17:04:50;5.70;99.90
51922;DHT22;37948;53.260;6.394;2023-03-03T17:16:19;5.70;99.90
51922;DHT22;37948;53.260;6.394;2023-03-03T17:24:03;5.60;99.90
51922;DHT22;37948;53.260;6.394;2023-03-03T17:32:21;5.60;99.90
51922;DHT22;37948;53.260;6.394;2023-03-03T17:34:58;5.60;99.90
51922;DHT22;37948;53.260;6.394;2023-03-03T17:37:52;5.60;99.90
51922;DHT22;37948;53.260;6.394;2023-03-03T17:43:15;5.60;99.90
51922;DHT22;37948;53.260;6.394;2023-03-03T17:45:46;5.60;99.90
51922;DHT22;37948;53.260;6.394;2023-03-03T17:51:40;5.60;99.90
51922;DHT22;37948;53.260;6.394;2023-03-03T17:54:29;5.60;99.90
51922;DHT22;37948;53.260;6.394;2023-03-03T17:59:42;5.50;99.90
51922;DHT22;37948;53.260;6.394;2023-03-03T18:11:18;5.60;99.90
51922;DHT22;37948;53.260;6.394;2023-03-03T18:14:15;5.50;99.90
51922;DHT22;37948;53.260;6.394;2023-03-03T18:19:29;5.50;99.90
51922;DHT22;37948;53.260;6.394;2023-03-03T18:22:20;5.50;99.90
51922;DHT22;37948;53.260;6.394;2023-03-03T18:27:31;5.50;99.90
51922;DHT22;37948;53.260;6.394;2023-03-03T18:32:58;5.60;99.90
51922;DHT22;37948;53.260;6.394;2023-03-03T18:41:08;5.60;99.90
51922;DHT22;37948;53.260;6.394;2023-03-03T19:04:36;5.50;99.90
51922;DHT22;37948;53.260;6.394;2023-03-03T19:18:32;5.50;99.90
51922;DHT22;37948;53.260;6.394;2023-03-03T19:34:47;5.40;99.90
51922;DHT22;37948;53.260;6.394;2023-03-03T19:37:26;5.40;99.90
51922;DHT22;37948;53.260;6.394;2023-03-03T19:47:37;5.40;99.90
51922;DHT22;37948;53.260;6.394;2023-03-03T19:52:59;5.40;99.90
51922;DHT22;37948;53.260;6.394;2023-03-03T20:14:59;5.40;99.90
51922;DHT22;37948;53.260;6.394;2023-03-03T20:28:40;5.40;99.90
51922;DHT22;37948;53.260;6.394;2023-03-03T20:31:16;5.40;99.90
51922;DHT22;37948;53.260;6.394;2023-03-03T20:36:48;5.40;99.90
51922;DHT22;37948;53.260;6.394;2023-03-03T20:39:27;5.30;99.90
51922;DHT22;37948;53.260;6.394;2023-03-03T20:50:47;5.40;99.90
51922;DHT22;37948;53.260;6.394;2023-03-03T21:01:23;5.50;99.90
51922;DHT22;37948;53.260;6.394;2023-03-03T21:03:50;5.40;99.90
51922;DHT22;37948;53.260;6.394;2023-03-03T21:06:18;5.40;99.90
51922;DHT22;37948;53.260;6.394;2023-03-03T21:08:52;5.40;99.90
51922;DHT22;37948;53.260;6.394;2023-03-03T21:11:40;5.40;99.90
51922;DHT22;37948;53.260;6.394;2023-03-03T21:14:19;5.40;99.90
51922;DHT22;37948;53.260;6.394;2023-03-03T21:16:48;5.40;99.90
51922;DHT22;37948;53.260;6.394;2023-03-03T21:19:24;5.40;99.90
51922;DHT22;37948;53.260;6.394;2023-03-03T21:21:51;5.40;99.90
51922;DHT22;37948;53.260;6.394;2023-03-03T21:24:17;5.40;99.90
51922;DHT22;37948;53.260;6.394;2023-03-03T21:26:55;5.40;99.90
51922;DHT22;37948;53.260;6.394;2023-03-03T21:29:26;5.40;99.90
51922;DHT22;37948;53.260;6.394;2023-03-03T21:32:04;5.50;99.90
51922;DHT22;37948;53.260;6.394;2023-03-03T21:34:35;5.50;99.90
51922;DHT22;37948;53.260;6.394;2023-03-03T21:37:04;5.40;99.90
51922;DHT22;37948;53.260;6.394;2023-03-03T21:42:10;5.40;99.90
51922;DHT22;37948;53.260;6.394;2023-03-03T21:44:47;5.50;99.90
51922;DHT22;37948;53.260;6.394;2023-03-03T21:47:19;5.40;99.90
51922;DHT22;37948;53.260;6.394;2023-03-03T21:49:47;5.40;99.90
51922;DHT22;37948;53.260;6.394;2023-03-03T21:52:14;5.40;99.90
51922;DHT22;37948;53.260;6.394;2023-03-03T21:54:50;5.50;99.90
51922;DHT22;37948;53.260;6.394;2023-03-03T21:57:16;5.50;99.90
51922;DHT22;37948;53.260;6.394;2023-03-03T21:59:41;5.50;99.90
51922;DHT22;37948;53.260;6.394;2023-03-03T22:02:07;5.40;99.90
51922;DHT22;37948;53.260;6.394;2023-03-03T22:04:34;5.40;99.90
51922;DHT22;37948;53.260;6.394;2023-03-03T22:07:00;5.40;99.90
51922;DHT22;37948;53.260;6.394;2023-03-03T22:09:26;5.40;99.90
51922;DHT22;37948;53.260;6.394;2023-03-03T22:11:52;5.40;99.90
51922;DHT22;37948;53.260;6.394;2023-03-03T22:14:17;5.40;99.90
51922;DHT22;37948;53.260;6.394;2023-03-03T22:16:43;5.50;99.90
51922;DHT22;37948;53.260;6.394;2023-03-03T22:19:08;5.50;99.90
51922;DHT22;37948;53.260;6.394;2023-03-03T22:21:35;5.50;99.90
51922;DHT22;37948;53.260;6.394;2023-03-03T22:24:01;5.50;99.90
51922;DHT22;37948;53.260;6.394;2023-03-03T22:26:26;5.50;99.90
51922;DHT22;37948;53.260;6.394;2023-03-03T22:28:52;5.50;99.90
51922;DHT22;37948;53.260;6.394;2023-03-03T22:31:18;5.50;99.90
51922;DHT22;37948;53.260;6.394;2023-03-03T22:33:45;5.50;99.90
51922;DHT22;37948;53.260;6.394;2023-03-03T22:36:12;5.40;99.90
51922;DHT22;37948;53.260;6.394;2023-03-03T22:38:37;5.50;99.90
51922;DHT22;37948;53.260;6.394;2023-03-03T22:41:03;5.50;99.90
51922;DHT22;37948;53.260;6.394;2023-03-03T22:43:32;5.50;99.90
51922;DHT22;37948;53.260;6.394;2023-03-03T22:45:59;5.40;99.90